Hlavní strana
METAR-TAF:

METAR-TAF

Letiště :

Rovaniemi, Finsko

zeměpisná šířka: 66-34N, zeměpisná délka: 025-50E, výška: 197 m

Aktuální stav počasí

Zpráva byla vytvořena před 33 minutami, v 10:20 UTC
Jihozápadní vítr 15 kt
Teplota -17°C
Vlhkost vzduchu 92%
Tlak 1004 hPa
Viditelnost 10 km a více
chuchvalce mlhy

METAR: EFRO 221020Z 22015KT 9999 BCFG NSC M17/M18 Q1004

Čas: 12:53 (10:53 UTC)

Předpověď počasí

Zpráva byla vytvořena před 40 minutami, v 10:13 UTC
Předpověď platná od 22 v 10 UTC do 23 v 09 UTC
Jihozápadní vítr 15 kt
Viditelnost 10 km a více
chuchvalce mlhy
Změna
od 22 v 11 UTC do 22 v 13 UTC
Viditelnost: 1200 m
ve výšce 1000 ft
sníh
Změna
od 22 v 13 UTC do 22 v 15 UTC
Viditelnost 10 km a více
Žádná oblačnost pod 1500 m, nevyskytují se cumulonimby.
Změna
od 22 v 17 UTC do 22 v 19 UTC
Severoseverozápadní vítr 10 kt

TAF: EFRO 221013Z 2210/2309 23015KT 9999 BCFG NSC BECMG 2211/2213 1200 SN VV010 BECMG 2213/2215 CAVOK BECMG 2217/2219 33010KT

Stav a předpovědi počasí z více než 4 000 letišť (zprávy METAR a TAF).

Červené a žluté tečky na mapě představují dostupné meteorologické stanice.

Když kurzor umístíte na tečku, zobrazí se název stanice.

Pak kliknutím zobrazíte stav a předpověď počasí.

Chcete-li změnit mapu, kliknutím na zelené tlačítko se znaménkem +mapu přiblížíte, kliknutím na zelené tlačítko se znaménkem – mapu oddálíte a kliknutím na zelené šipky přejdete na sousední mapy.


METAR-TAF: